createdAt,value
2023-01-18T00:00:40.357Z,45877.88
2023-01-18T00:03:12.907Z,45867.88
2023-01-18T00:05:43.770Z,45859.91
2023-01-18T00:08:12.627Z,45883.88
2023-01-18T00:10:39.664Z,45895.88
2023-01-18T00:13:06.666Z,45879.88
2023-01-18T00:15:34.196Z,45889.88
2023-01-18T00:18:01.077Z,45873.88
2023-01-18T00:20:28.958Z,45881.88
2023-01-18T00:22:55.782Z,45891.88
2023-01-18T00:25:24.456Z,45871.88
2023-01-18T00:27:52.765Z,45875.88
2023-01-18T00:30:25.928Z,45905.88
2023-01-18T00:32:55.752Z,45863.91
2023-01-18T00:35:22.708Z,45881.88
2023-01-18T00:37:50.222Z,45905.88
2023-01-18T00:40:17.221Z,45873.88
2023-01-18T00:43:02.487Z,45877.88
2023-01-18T00:45:29.274Z,45869.88
2023-01-18T00:47:55.896Z,45891.88
2023-01-18T00:50:22.786Z,45863.91
2023-01-18T00:52:50.020Z,45893.88
2023-01-18T00:55:17.512Z,45895.88
2023-01-18T00:57:44.137Z,45893.88
2023-01-18T01:00:15.061Z,45885.88
2023-01-18T01:02:42.218Z,45879.88
2023-01-18T01:05:39.408Z,45903.88
2023-01-18T01:08:06.971Z,45899.88
2023-01-18T01:10:36.488Z,45877.88
2023-01-18T01:13:21.678Z,45885.88
2023-01-18T01:16:06.486Z,45891.88
2023-01-18T01:18:51.692Z,45883.88
2023-01-18T01:21:36.589Z,45891.88
2023-01-18T01:24:21.964Z,45897.88
2023-01-18T01:26:48.429Z,45897.88
2023-01-18T01:29:15.875Z,45905.88
2023-01-18T01:31:42.744Z,45901.88
2023-01-18T01:34:10.199Z,45893.88
2023-01-18T01:36:37.105Z,45909.88
2023-01-18T01:39:04.271Z,45887.88
2023-01-18T01:41:33.027Z,45887.88
2023-01-18T01:44:04.408Z,45879.88
2023-01-18T01:46:48.953Z,45893.88
2023-01-18T01:49:39.962Z,45901.88
2023-01-18T01:52:09.447Z,45901.88
2023-01-18T01:54:53.207Z,45913.84
2023-01-18T01:57:25.936Z,45897.88
2023-01-18T02:00:00.724Z,45889.88
2023-01-18T02:02:30.486Z,45885.88
2023-01-18T02:04:58.057Z,45873.88
2023-01-18T02:07:28.884Z,45897.88
2023-01-18T02:09:57.306Z,45891.88
2023-01-18T02:12:24.359Z,45883.88
2023-01-18T02:14:52.246Z,45877.88
2023-01-18T02:17:35.017Z,45919.84
2023-01-18T02:20:37.731Z,45911.84
2023-01-18T02:23:18.995Z,45901.88
2023-01-18T02:26:07.199Z,45881.88
2023-01-18T02:28:37.478Z,45897.88
2023-01-18T02:31:12.421Z,45905.88
2023-01-18T02:34:03.902Z,45893.88
2023-01-18T02:36:37.998Z,45889.88
2023-01-18T02:39:11.638Z,45897.88
2023-01-18T02:42:06.943Z,45869.88
2023-01-18T02:45:00.977Z,45881.88
2023-01-18T02:47:28.907Z,45889.88
2023-01-18T02:49:56.665Z,45901.88
2023-01-18T02:52:47.609Z,45907.88
2023-01-18T02:55:19.781Z,45921.84
2023-01-18T02:57:47.636Z,45905.88
2023-01-18T03:00:18.940Z,45917.84
2023-01-18T03:02:48.023Z,45883.88
2023-01-18T03:05:14.637Z,45885.88
2023-01-18T03:07:58.277Z,45897.88
2023-01-18T03:10:28.297Z,45899.88
2023-01-18T03:13:02.945Z,45899.88
2023-01-18T03:15:44.335Z,45901.88
2023-01-18T03:18:25.779Z,45901.88
2023-01-18T03:20:55.712Z,45889.88
2023-01-18T03:23:39.999Z,45875.88
2023-01-18T03:26:15.059Z,45891.88
2023-01-18T03:29:03.764Z,45901.88
2023-01-18T03:32:16.651Z,45901.88
2023-01-18T03:34:51.603Z,45913.84
2023-01-18T03:37:25.078Z,45885.88
2023-01-18T03:39:56.574Z,45893.88
2023-01-18T03:42:37.322Z,45893.88
2023-01-18T03:45:12.538Z,45905.88
2023-01-18T03:47:39.776Z,45895.88
2023-01-18T03:50:06.624Z,45901.88
2023-01-18T03:52:40.604Z,45927.84
2023-01-18T03:55:14.083Z,45913.84
2023-01-18T03:57:50.083Z,45907.88
2023-01-18T04:00:17.612Z,45919.84
2023-01-18T04:02:45.403Z,45907.88
2023-01-18T04:05:11.997Z,45917.84
2023-01-18T04:07:38.466Z,45901.88
2023-01-18T04:10:05.385Z,45925.84
2023-01-18T04:12:34.245Z,45903.88
2023-01-18T04:15:01.325Z,45911.84
2023-01-18T04:17:28.064Z,45889.88
2023-01-18T04:19:54.598Z,45913.84
2023-01-18T04:22:21.238Z,45921.84
2023-01-18T04:24:47.788Z,45913.84
2023-01-18T04:27:14.272Z,45915.84
2023-01-18T04:29:40.748Z,45877.88
2023-01-18T04:32:07.382Z,45905.88
2023-01-18T04:34:34.101Z,45889.88
2023-01-18T04:37:00.943Z,45921.84
2023-01-18T04:39:27.464Z,45913.84
2023-01-18T04:41:55.213Z,45907.88
2023-01-18T04:44:23.575Z,45915.84
2023-01-18T04:46:50.898Z,45921.84
2023-01-18T04:49:17.585Z,45939.84
2023-01-18T04:51:45.541Z,45913.84
2023-01-18T04:54:14.426Z,45937.84
2023-01-18T04:56:41.166Z,45893.88
2023-01-18T04:59:07.673Z,45897.88
2023-01-18T05:01:35.633Z,45889.88
2023-01-18T05:04:02.115Z,45897.88
2023-01-18T05:06:28.565Z,45905.88
2023-01-18T05:08:55.044Z,45919.84
2023-01-18T05:11:24.136Z,45943.84
2023-01-18T05:13:51.086Z,45919.84
2023-01-18T05:16:21.543Z,45923.84
2023-01-18T05:18:48.002Z,45897.88
2023-01-18T05:21:15.355Z,45929.84
2023-01-18T05:23:41.928Z,45905.88
2023-01-18T05:26:14.927Z,45925.84
2023-01-18T05:28:42.391Z,45921.84
2023-01-18T05:31:09.779Z,45907.88
2023-01-18T05:33:36.501Z,45933.84
2023-01-18T05:36:03.534Z,45921.84
2023-01-18T05:38:29.969Z,45919.84
2023-01-18T05:40:57.358Z,45911.84
2023-01-18T05:43:26.852Z,45909.88
2023-01-18T05:45:53.883Z,45901.88
2023-01-18T05:48:20.818Z,45905.88
2023-01-18T05:50:48.667Z,45913.84
2023-01-18T05:53:19.107Z,45903.88
2023-01-18T05:55:57.640Z,45921.84
2023-01-18T05:58:25.339Z,45909.88
2023-01-18T06:00:52.322Z,45889.88
2023-01-18T06:03:18.769Z,45897.88
2023-01-18T06:05:47.075Z,45941.84
2023-01-18T06:08:14.089Z,45923.84
2023-01-18T06:10:40.525Z,45917.84
2023-01-18T06:13:07.138Z,45885.88
2023-01-18T06:15:33.731Z,45929.84
2023-01-18T06:18:00.442Z,45907.88
2023-01-18T06:20:30.293Z,45907.88
2023-01-18T06:22:59.946Z,45913.84
2023-01-18T06:25:26.701Z,45925.84
2023-01-18T06:27:53.453Z,45937.84
2023-01-18T06:30:20.403Z,45927.84
2023-01-18T06:32:49.111Z,45917.84
2023-01-18T06:35:15.731Z,45917.84
2023-01-18T06:37:42.495Z,45945.84
2023-01-18T06:40:09.763Z,45917.84
2023-01-18T06:42:36.195Z,45945.84
2023-01-18T06:45:03.180Z,45913.84
2023-01-18T06:47:29.588Z,45927.84
2023-01-18T06:49:56.472Z,45897.88
2023-01-18T06:52:22.952Z,45905.88
2023-01-18T06:54:49.414Z,45919.84
2023-01-18T06:57:15.831Z,45911.84
2023-01-18T06:59:42.250Z,45917.84
2023-01-18T07:02:14.122Z,45877.88
2023-01-18T07:04:44.029Z,45901.88
2023-01-18T07:07:10.609Z,45897.88
2023-01-18T07:09:37.398Z,45921.84
2023-01-18T07:12:04.688Z,45909.88
2023-01-18T07:14:31.130Z,45909.88
2023-01-18T07:16:57.693Z,45901.88
2023-01-18T07:19:24.178Z,45889.88
2023-01-18T07:21:51.490Z,45905.88
2023-01-18T07:24:18.227Z,45893.88
2023-01-18T07:26:44.700Z,45901.88
2023-01-18T07:29:11.335Z,45893.88
2023-01-18T07:31:40.491Z,45905.88
2023-01-18T07:34:08.870Z,45889.88
2023-01-18T07:36:35.606Z,45885.88
2023-01-18T07:39:03.211Z,45913.84
2023-01-18T07:41:30.990Z,45893.88
2023-01-18T07:43:57.771Z,45921.84
2023-01-18T07:46:26.145Z,45885.88
2023-01-18T07:48:53.115Z,45897.88
2023-01-18T07:51:24.293Z,45893.88
2023-01-18T07:53:55.129Z,45883.88
2023-01-18T07:56:23.617Z,45891.88
2023-01-18T07:58:50.186Z,45877.88
2023-01-18T08:01:19.737Z,45877.88
2023-01-18T08:03:48.105Z,45897.88
2023-01-18T08:06:19.156Z,45875.88
2023-01-18T08:08:45.768Z,45883.88
2023-01-18T08:11:12.275Z,45891.88
2023-01-18T08:13:39.081Z,45889.88
2023-01-18T08:16:07.672Z,45889.88
2023-01-18T08:18:34.221Z,45901.88
2023-01-18T08:21:00.857Z,45917.84
2023-01-18T08:23:27.811Z,45917.84
2023-01-18T08:25:55.371Z,45881.88
2023-01-18T08:28:22.056Z,45871.88
2023-01-18T08:30:48.872Z,45887.88
2023-01-18T08:33:15.431Z,45905.88
2023-01-18T08:35:45.261Z,45881.88
2023-01-18T08:38:13.261Z,45879.88
2023-01-18T08:40:40.332Z,45875.88
2023-01-18T08:43:07.522Z,45875.88
2023-01-18T08:45:37.107Z,45865.88
2023-01-18T08:48:06.263Z,45861.91
2023-01-18T08:50:34.122Z,45865.88
2023-01-18T08:53:01.169Z,45869.88
2023-01-18T08:55:29.546Z,45861.91
2023-01-18T08:57:57.859Z,45881.88
2023-01-18T09:00:28.359Z,45889.88
2023-01-18T09:02:54.985Z,45877.88
2023-01-18T09:05:22.382Z,45869.88
2023-01-18T09:07:48.850Z,45869.88
2023-01-18T09:10:15.687Z,45879.88
2023-01-18T09:12:42.358Z,45849.91
2023-01-18T09:15:09.506Z,45883.88
2023-01-18T09:17:36.272Z,45849.91
2023-01-18T09:20:03.090Z,45877.88
2023-01-18T09:22:29.542Z,45853.91
2023-01-18T09:24:56.923Z,45837.91
2023-01-18T09:27:23.346Z,45869.88
2023-01-18T09:29:52.212Z,45873.88
2023-01-18T09:32:19.994Z,45849.91
2023-01-18T09:34:50.522Z,45867.88
2023-01-18T09:37:18.993Z,45849.91
2023-01-18T09:39:51.777Z,45865.88
2023-01-18T09:42:21.868Z,45849.91
2023-01-18T09:44:52.997Z,45853.91
2023-01-18T09:47:26.953Z,45831.91
2023-01-18T09:49:59.125Z,45849.91
2023-01-18T09:52:59.282Z,45851.91
2023-01-18T09:55:52.197Z,45837.91
2023-01-18T09:58:37.578Z,45833.91
2023-01-18T10:01:10.724Z,45841.91
2023-01-18T10:04:12.717Z,45841.91
2023-01-18T10:06:56.265Z,45867.88
2023-01-18T10:09:24.797Z,45845.91
2023-01-18T10:12:00.788Z,45835.91
2023-01-18T10:15:10.313Z,45845.91
2023-01-18T10:17:40.499Z,45843.91
2023-01-18T10:20:28.607Z,45851.91
2023-01-18T10:23:00.846Z,45831.91
2023-01-18T10:25:38.765Z,45821.91
2023-01-18T10:28:10.823Z,45829.91
2023-01-18T10:30:50.366Z,45841.91
2023-01-18T10:33:23.483Z,45849.91
2023-01-18T10:36:25.118Z,45813.94
2023-01-18T10:38:54.940Z,45825.91
2023-01-18T10:41:27.689Z,45825.91
2023-01-18T10:43:55.027Z,45823.91
2023-01-18T10:46:21.635Z,45817.91
2023-01-18T10:48:52.853Z,45825.91
2023-01-18T10:51:37.390Z,45805.94
2023-01-18T10:54:19.212Z,45821.91
2023-01-18T10:56:45.866Z,45799.94
2023-01-18T10:59:29.775Z,45829.91
2023-01-18T11:01:58.360Z,45823.91
2023-01-18T11:04:29.663Z,45805.94
2023-01-18T11:06:58.802Z,45811.94
2023-01-18T11:09:44.234Z,45805.94
2023-01-18T11:12:41.287Z,45801.94
2023-01-18T11:15:14.036Z,45801.94
2023-01-18T11:17:42.588Z,45773.94
2023-01-18T11:20:21.657Z,45797.94
2023-01-18T11:22:59.364Z,45805.94
2023-01-18T11:25:34.912Z,45801.94
2023-01-18T11:28:03.113Z,45807.94
2023-01-18T11:30:29.928Z,45775.94
2023-01-18T11:32:59.793Z,45785.94
2023-01-18T11:35:37.145Z,45763.97
2023-01-18T11:38:08.629Z,45769.97
2023-01-18T11:40:35.257Z,45765.97
2023-01-18T11:43:25.150Z,45757.97
2023-01-18T11:46:01.374Z,45753.97
2023-01-18T11:48:51.993Z,45757.97
2023-01-18T11:51:25.648Z,45737.97
2023-01-18T11:54:01.207Z,45745.97
2023-01-18T11:56:40.691Z,45737.97
2023-01-18T11:59:18.735Z,45729.97
2023-01-18T12:01:53.659Z,45706.00
2023-01-18T12:05:01.953Z,45718.00
2023-01-18T12:07:53.790Z,45694.00
2023-01-18T12:10:25.925Z,45706.00
2023-01-18T12:13:30.122Z,45700.00
2023-01-18T12:16:04.657Z,45686.00
2023-01-18T12:18:47.695Z,45686.00
2023-01-18T12:21:24.301Z,45680.03
2023-01-18T12:24:09.119Z,45686.00
2023-01-18T12:26:49.285Z,45688.00
2023-01-18T12:29:37.666Z,45650.03
2023-01-18T12:32:22.373Z,45662.03
2023-01-18T12:35:22.670Z,45650.03
2023-01-18T12:38:15.902Z,45668.03
2023-01-18T12:40:42.363Z,45664.03
2023-01-18T12:43:30.109Z,45656.03
2023-01-18T12:46:07.408Z,45666.03
2023-01-18T12:48:48.250Z,45670.03
2023-01-18T12:51:19.800Z,45662.03
2023-01-18T12:54:21.925Z,45660.03
2023-01-18T12:56:52.522Z,45638.06
2023-01-18T12:59:57.700Z,45644.03
2023-01-18T13:02:35.564Z,45634.06
2023-01-18T13:05:23.679Z,45626.06
2023-01-18T13:07:56.966Z,45626.06
2023-01-18T13:10:24.940Z,45622.06
2023-01-18T13:12:52.405Z,45618.06
2023-01-18T13:15:38.296Z,45624.06
2023-01-18T13:18:18.546Z,45610.06
2023-01-18T13:20:58.130Z,45598.06
2023-01-18T13:23:42.653Z,45586.09
2023-01-18T13:26:29.347Z,45586.09
2023-01-18T13:29:26.204Z,45588.09
2023-01-18T13:31:52.870Z,45570.09
2023-01-18T13:34:44.953Z,45580.09
2023-01-18T13:37:42.761Z,45550.13
2023-01-18T13:40:36.625Z,45564.09
2023-01-18T13:43:05.684Z,45558.09
2023-01-18T13:45:32.772Z,45560.09
2023-01-18T13:48:05.399Z,45590.09
2023-01-18T13:50:31.841Z,45558.09
2023-01-18T13:53:25.004Z,45594.09
2023-01-18T13:55:54.466Z,45582.09
2023-01-18T13:58:29.756Z,45590.09
2023-01-18T14:00:59.272Z,45594.09
2023-01-18T14:03:29.724Z,45588.09
2023-01-18T14:05:57.383Z,45594.09
2023-01-18T14:08:31.332Z,45608.06
2023-01-18T14:11:07.717Z,45598.06
2023-01-18T14:13:46.081Z,45606.06
2023-01-18T14:16:34.226Z,45614.06
2023-01-18T14:19:12.574Z,45614.06
2023-01-18T14:22:07.220Z,45602.06
2023-01-18T14:24:47.882Z,45614.06
2023-01-18T14:27:20.492Z,45618.06
2023-01-18T14:29:51.991Z,45614.06
2023-01-18T14:32:26.062Z,45618.06
2023-01-18T14:34:58.100Z,45618.06
2023-01-18T14:37:30.102Z,45630.06
2023-01-18T14:40:13.681Z,45632.06
2023-01-18T14:42:55.435Z,45666.03
2023-01-18T14:45:24.767Z,45646.03
2023-01-18T14:47:51.221Z,45652.03
2023-01-18T14:50:20.590Z,45650.03
2023-01-18T14:52:50.206Z,45658.03
2023-01-18T14:55:26.089Z,45662.03
2023-01-18T14:58:00.703Z,45662.03
2023-01-18T15:00:28.034Z,45650.03
2023-01-18T15:02:54.535Z,45650.03
2023-01-18T15:05:21.024Z,45674.03
2023-01-18T15:07:55.137Z,45650.03
2023-01-18T15:10:24.123Z,45668.03
2023-01-18T15:12:54.192Z,45678.03
2023-01-18T15:15:29.203Z,45690.00
2023-01-18T15:18:10.334Z,45696.00
2023-01-18T15:20:48.209Z,45664.03
2023-01-18T15:23:14.738Z,45682.00
2023-01-18T15:25:41.203Z,45690.00
2023-01-18T15:28:22.996Z,45682.00
2023-01-18T15:30:53.131Z,45694.00
2023-01-18T15:33:22.057Z,45704.00
2023-01-18T15:35:53.045Z,45710.00
2023-01-18T15:38:20.223Z,45686.00
2023-01-18T15:41:14.672Z,45702.00
2023-01-18T15:43:43.402Z,45718.00
2023-01-18T15:46:14.246Z,45698.00
2023-01-18T15:48:53.452Z,45698.00
2023-01-18T15:51:22.587Z,45694.00
2023-01-18T15:53:56.004Z,45718.00
2023-01-18T15:56:26.640Z,45706.00
2023-01-18T15:58:55.845Z,45702.00
2023-01-18T16:01:35.610Z,45694.00
2023-01-18T16:04:29.549Z,45710.00
2023-01-18T16:06:56.043Z,45692.00
2023-01-18T16:09:23.077Z,45702.00
2023-01-18T16:11:56.319Z,45727.97
2023-01-18T16:14:28.913Z,45714.00
2023-01-18T16:16:57.880Z,45722.00
2023-01-18T16:19:29.396Z,45729.97
2023-01-18T16:22:07.185Z,45731.97
2023-01-18T16:24:52.468Z,45720.00
2023-01-18T16:27:22.729Z,45710.00
2023-01-18T16:29:52.184Z,45729.97
2023-01-18T16:32:21.685Z,45733.97
2023-01-18T16:34:48.672Z,45716.00
2023-01-18T16:37:17.012Z,45712.00
2023-01-18T16:39:43.502Z,45722.00
2023-01-18T16:42:11.549Z,45733.97
2023-01-18T16:44:40.574Z,45725.97
2023-01-18T16:47:09.422Z,45737.97
2023-01-18T16:49:36.546Z,45727.97
2023-01-18T16:52:03.048Z,45733.97
2023-01-18T16:54:29.503Z,45749.97
2023-01-18T16:56:55.957Z,45753.97
2023-01-18T16:59:22.544Z,45739.97
2023-01-18T17:01:50.269Z,45739.97
2023-01-18T17:04:17.555Z,45718.00
2023-01-18T17:06:44.743Z,45710.00
2023-01-18T17:09:40.452Z,45745.97
2023-01-18T17:12:13.955Z,45722.00
2023-01-18T17:14:40.356Z,45759.97
2023-01-18T17:17:09.872Z,45737.97
2023-01-18T17:19:37.671Z,45739.97
2023-01-18T17:22:04.407Z,45747.97
2023-01-18T17:24:30.849Z,45745.97
2023-01-18T17:26:57.340Z,45737.97
2023-01-18T17:29:23.907Z,45722.00
2023-01-18T17:31:53.020Z,45735.97
2023-01-18T17:34:28.474Z,45729.97
2023-01-18T17:36:58.015Z,45731.97
2023-01-18T17:39:31.914Z,45741.97
2023-01-18T17:42:10.749Z,45757.97
2023-01-18T17:44:38.916Z,45753.97
2023-01-18T17:47:05.418Z,45749.97
2023-01-18T17:49:32.207Z,45745.97
2023-01-18T17:51:59.039Z,45733.97
2023-01-18T17:54:25.511Z,45761.97
2023-01-18T17:56:53.232Z,45745.97
2023-01-18T17:59:20.180Z,45773.94
2023-01-18T18:01:46.717Z,45725.97
2023-01-18T18:04:13.800Z,45767.97
2023-01-18T18:06:49.348Z,45753.97
2023-01-18T18:09:19.887Z,45735.97
2023-01-18T18:11:46.315Z,45757.97
2023-01-18T18:14:12.743Z,45743.97
2023-01-18T18:16:43.460Z,45745.97
2023-01-18T18:19:14.378Z,45725.97
2023-01-18T18:21:42.119Z,45745.97
2023-01-18T18:24:08.974Z,45729.97
2023-01-18T18:26:35.430Z,45745.97
2023-01-18T18:29:02.400Z,45741.97
2023-01-18T18:31:29.296Z,45733.97
2023-01-18T18:33:55.920Z,45743.97
2023-01-18T18:36:22.349Z,45743.97
2023-01-18T18:38:48.747Z,45745.97
2023-01-18T18:41:15.587Z,45727.97
2023-01-18T18:43:42.014Z,45739.97
2023-01-18T18:46:08.623Z,45735.97
2023-01-18T18:48:35.190Z,45733.97
2023-01-18T18:51:01.724Z,45763.97
2023-01-18T18:53:37.418Z,45749.97
2023-01-18T18:56:09.053Z,45751.97
2023-01-18T18:58:36.568Z,45747.97
2023-01-18T19:01:03.811Z,45749.97
2023-01-18T19:03:30.520Z,45763.97
2023-01-18T19:05:57.037Z,45729.97
2023-01-18T19:08:23.771Z,45753.97
2023-01-18T19:10:51.076Z,45761.97
2023-01-18T19:13:19.103Z,45761.97
2023-01-18T19:15:49.974Z,45753.97
2023-01-18T19:18:16.551Z,45741.97
2023-01-18T19:20:43.261Z,45759.97
2023-01-18T19:23:10.600Z,45769.97
2023-01-18T19:25:38.448Z,45751.97
2023-01-18T19:28:05.097Z,45753.97
2023-01-18T19:30:33.048Z,45745.97
2023-01-18T19:33:03.447Z,45761.97
2023-01-18T19:35:31.145Z,45753.97
2023-01-18T19:38:00.035Z,45753.97
2023-01-18T19:40:26.518Z,45749.97
2023-01-18T19:42:54.335Z,45767.97
2023-01-18T19:45:27.934Z,45739.97
2023-01-18T19:47:57.745Z,45755.97
2023-01-18T19:50:25.194Z,45765.97
2023-01-18T19:52:51.614Z,45759.97
2023-01-18T19:55:18.543Z,45749.97
2023-01-18T19:57:45.045Z,45749.97
2023-01-18T20:00:12.094Z,45761.97
2023-01-18T20:02:39.959Z,45781.94
2023-01-18T20:05:07.089Z,45745.97
2023-01-18T20:07:33.715Z,45753.97
2023-01-18T20:10:00.210Z,45789.94
2023-01-18T20:12:31.094Z,45769.97
2023-01-18T20:14:57.628Z,45749.97
2023-01-18T20:17:24.242Z,45751.97
2023-01-18T20:19:53.855Z,45761.97
2023-01-18T20:22:21.693Z,45733.97
2023-01-18T20:24:48.372Z,45745.97
2023-01-18T20:27:17.099Z,45765.97
2023-01-18T20:29:44.285Z,45777.94
2023-01-18T20:32:18.536Z,45771.94
2023-01-18T20:34:46.586Z,45741.97
2023-01-18T20:37:14.179Z,45733.97
2023-01-18T20:39:40.641Z,45745.97
2023-01-18T20:42:07.200Z,45737.97
2023-01-18T20:44:34.178Z,45749.97
2023-01-18T20:47:00.668Z,45747.97
2023-01-18T20:49:37.378Z,45759.97
2023-01-18T20:52:06.728Z,45745.97
2023-01-18T20:54:34.867Z,45747.97
2023-01-18T20:57:02.805Z,45747.97
2023-01-18T20:59:29.226Z,45749.97
2023-01-18T21:01:55.971Z,45739.97
2023-01-18T21:04:22.546Z,45731.97
2023-01-18T21:06:49.777Z,45737.97
2023-01-18T21:09:16.849Z,45745.97
2023-01-18T21:11:43.817Z,45735.97
2023-01-18T21:14:10.421Z,45745.97
2023-01-18T21:16:37.242Z,45745.97
2023-01-18T21:19:04.466Z,45741.97
2023-01-18T21:21:31.767Z,45739.97
2023-01-18T21:23:59.010Z,45749.97
2023-01-18T21:26:25.468Z,45757.97
2023-01-18T21:28:51.886Z,45735.97
2023-01-18T21:31:18.554Z,45737.97
2023-01-18T21:33:45.059Z,45743.97
2023-01-18T21:36:13.798Z,45749.97
2023-01-18T21:38:40.282Z,45745.97
2023-01-18T21:41:25.408Z,45757.97
2023-01-18T21:44:11.649Z,45749.97
2023-01-18T21:46:47.165Z,45745.97
2023-01-18T21:49:47.167Z,45755.97
2023-01-18T21:52:37.418Z,45731.97
2023-01-18T21:55:04.060Z,45759.97
2023-01-18T21:57:30.851Z,45743.97
2023-01-18T21:59:57.265Z,45751.97
2023-01-18T22:02:23.955Z,45749.97
2023-01-18T22:05:05.619Z,45759.97
2023-01-18T22:07:34.353Z,45749.97
2023-01-18T22:10:06.374Z,45743.97
2023-01-18T22:12:35.117Z,45722.00
2023-01-18T22:15:02.983Z,45747.97
2023-01-18T22:17:29.787Z,45741.97
2023-01-18T22:19:56.314Z,45733.97
2023-01-18T22:22:22.779Z,45773.94
2023-01-18T22:24:49.204Z,45761.97
2023-01-18T22:27:16.020Z,45773.94
2023-01-18T22:29:42.464Z,45751.97
2023-01-18T22:32:08.953Z,45763.97
2023-01-18T22:34:36.399Z,45753.97
2023-01-18T22:37:03.222Z,45743.97
2023-01-18T22:39:29.847Z,45753.97
2023-01-18T22:41:56.319Z,45761.97
2023-01-18T22:44:23.012Z,45753.97
2023-01-18T22:46:49.696Z,45753.97
2023-01-18T22:49:16.189Z,45771.94
2023-01-18T22:51:42.695Z,45773.94
2023-01-18T22:54:09.175Z,45757.97
2023-01-18T22:56:35.708Z,45735.97
2023-01-18T22:59:02.264Z,45751.97
2023-01-18T23:01:31.648Z,45749.97
2023-01-18T23:04:01.437Z,45731.97
2023-01-18T23:06:29.009Z,45737.97
2023-01-18T23:08:56.367Z,45757.97
2023-01-18T23:11:26.179Z,45761.97
2023-01-18T23:14:19.229Z,45749.97
2023-01-18T23:17:04.191Z,45755.97
2023-01-18T23:19:31.175Z,45745.97
2023-01-18T23:21:58.121Z,45753.97
2023-01-18T23:24:25.638Z,45751.97
2023-01-18T23:26:52.488Z,45741.97
2023-01-18T23:29:20.033Z,45749.97
2023-01-18T23:31:46.870Z,45753.97
2023-01-18T23:34:13.500Z,45769.97
2023-01-18T23:36:39.957Z,45757.97
2023-01-18T23:39:25.102Z,45743.97
2023-01-18T23:42:10.698Z,45777.94
2023-01-18T23:44:55.660Z,45753.97
2023-01-18T23:47:40.781Z,45753.97
2023-01-18T23:50:26.188Z,45755.97
2023-01-18T23:53:11.239Z,45751.97
2023-01-18T23:55:37.669Z,45749.97
2023-01-18T23:58:04.132Z,45773.94
